sensor_id;sensor_type;location;lat;lon;timestamp;P1;durP1;ratioP1;P2;durP2;ratioP2
37065;SDS011;22981;43.080;25.550;2023-11-21T00:01:08;62.30;;;39.05;;
37065;SDS011;22981;43.080;25.550;2023-11-21T00:03:36;42.80;;;26.87;;
37065;SDS011;22981;43.080;25.550;2023-11-21T00:06:03;47.13;;;29.35;;
37065;SDS011;22981;43.080;25.550;2023-11-21T00:08:33;62.85;;;38.55;;
37065;SDS011;22981;43.080;25.550;2023-11-21T00:11:00;50.12;;;32.80;;
37065;SDS011;22981;43.080;25.550;2023-11-21T00:13:29;36.13;;;22.22;;
37065;SDS011;22981;43.080;25.550;2023-11-21T00:16:00;31.12;;;19.05;;
37065;SDS011;22981;43.080;25.550;2023-11-21T00:18:28;66.87;;;39.25;;
37065;SDS011;22981;43.080;25.550;2023-11-21T00:20:55;80.77;;;50.12;;
37065;SDS011;22981;43.080;25.550;2023-11-21T00:23:24;75.20;;;50.05;;
37065;SDS011;22981;43.080;25.550;2023-11-21T00:25:52;50.40;;;32.58;;
37065;SDS011;22981;43.080;25.550;2023-11-21T00:28:19;41.23;;;26.07;;
37065;SDS011;22981;43.080;25.550;2023-11-21T00:30:48;40.60;;;28.12;;
37065;SDS011;22981;43.080;25.550;2023-11-21T00:33:15;41.53;;;27.80;;
37065;SDS011;22981;43.080;25.550;2023-11-21T00:35:43;43.83;;;29.25;;
37065;SDS011;22981;43.080;25.550;2023-11-21T00:38:10;45.50;;;27.85;;
37065;SDS011;22981;43.080;25.550;2023-11-21T00:40:38;40.80;;;28.23;;
37065;SDS011;22981;43.080;25.550;2023-11-21T00:43:05;42.30;;;28.55;;
37065;SDS011;22981;43.080;25.550;2023-11-21T00:45:33;43.05;;;26.20;;
37065;SDS011;22981;43.080;25.550;2023-11-21T00:48:02;39.45;;;25.52;;
37065;SDS011;22981;43.080;25.550;2023-11-21T00:50:30;38.13;;;26.70;;
37065;SDS011;22981;43.080;25.550;2023-11-21T00:52:58;54.38;;;35.50;;
37065;SDS011;22981;43.080;25.550;2023-11-21T00:55:25;43.20;;;30.15;;
37065;SDS011;22981;43.080;25.550;2023-11-21T00:57:53;36.35;;;24.92;;
37065;SDS011;22981;43.080;25.550;2023-11-21T01:00:21;34.80;;;24.05;;
37065;SDS011;22981;43.080;25.550;2023-11-21T01:02:49;37.38;;;24.52;;
37065;SDS011;22981;43.080;25.550;2023-11-21T01:05:16;34.98;;;23.73;;
37065;SDS011;22981;43.080;25.550;2023-11-21T01:07:45;26.45;;;17.80;;
37065;SDS011;22981;43.080;25.550;2023-11-21T01:10:13;26.93;;;16.95;;
37065;SDS011;22981;43.080;25.550;2023-11-21T01:12:42;23.15;;;16.17;;
37065;SDS011;22981;43.080;25.550;2023-11-21T01:15:09;24.98;;;16.55;;
37065;SDS011;22981;43.080;25.550;2023-11-21T01:17:39;44.03;;;26.95;;
37065;SDS011;22981;43.080;25.550;2023-11-21T01:20:06;41.00;;;27.67;;
37065;SDS011;22981;43.080;25.550;2023-11-21T01:22:36;45.48;;;29.63;;
37065;SDS011;22981;43.080;25.550;2023-11-21T01:25:04;48.23;;;31.27;;
37065;SDS011;22981;43.080;25.550;2023-11-21T01:27:33;42.50;;;26.80;;
37065;SDS011;22981;43.080;25.550;2023-11-21T01:30:02;40.50;;;26.02;;
37065;SDS011;22981;43.080;25.550;2023-11-21T01:32:30;44.83;;;29.05;;
37065;SDS011;22981;43.080;25.550;2023-11-21T01:34:58;38.38;;;27.13;;
37065;SDS011;22981;43.080;25.550;2023-11-21T01:37:26;36.42;;;26.12;;
37065;SDS011;22981;43.080;25.550;2023-11-21T01:39:53;34.38;;;24.18;;
37065;SDS011;22981;43.080;25.550;2023-11-21T01:42:21;33.08;;;23.77;;
37065;SDS011;22981;43.080;25.550;2023-11-21T01:44:49;33.70;;;23.73;;
37065;SDS011;22981;43.080;25.550;2023-11-21T01:47:16;36.08;;;23.73;;
37065;SDS011;22981;43.080;25.550;2023-11-21T01:49:44;35.00;;;23.60;;
37065;SDS011;22981;43.080;25.550;2023-11-21T01:52:13;31.42;;;21.02;;
37065;SDS011;22981;43.080;25.550;2023-11-21T01:54:41;30.97;;;19.92;;
37065;SDS011;22981;43.080;25.550;2023-11-21T01:57:09;36.93;;;21.77;;
37065;SDS011;22981;43.080;25.550;2023-11-21T01:59:36;30.80;;;21.40;;
37065;SDS011;22981;43.080;25.550;2023-11-21T02:02:10;29.18;;;19.62;;
37065;SDS011;22981;43.080;25.550;2023-11-21T02:04:35;30.92;;;19.20;;
37065;SDS011;22981;43.080;25.550;2023-11-21T02:07:03;28.32;;;19.02;;
37065;SDS011;22981;43.080;25.550;2023-11-21T02:09:31;29.32;;;20.35;;
37065;SDS011;22981;43.080;25.550;2023-11-21T02:12:00;36.13;;;22.37;;
37065;SDS011;22981;43.080;25.550;2023-11-21T02:14:28;37.00;;;21.97;;
37065;SDS011;22981;43.080;25.550;2023-11-21T02:16:56;52.03;;;29.60;;
37065;SDS011;22981;43.080;25.550;2023-11-21T02:19:24;35.63;;;24.67;;
37065;SDS011;22981;43.080;25.550;2023-11-21T02:21:52;38.95;;;24.72;;
37065;SDS011;22981;43.080;25.550;2023-11-21T02:24:20;37.20;;;23.40;;
37065;SDS011;22981;43.080;25.550;2023-11-21T02:26:49;36.28;;;23.00;;
37065;SDS011;22981;43.080;25.550;2023-11-21T02:29:18;31.48;;;21.40;;
37065;SDS011;22981;43.080;25.550;2023-11-21T02:31:48;30.75;;;20.82;;
37065;SDS011;22981;43.080;25.550;2023-11-21T02:34:17;29.20;;;19.42;;
37065;SDS011;22981;43.080;25.550;2023-11-21T02:36:45;27.65;;;17.77;;
37065;SDS011;22981;43.080;25.550;2023-11-21T02:39:17;26.87;;;17.37;;
37065;SDS011;22981;43.080;25.550;2023-11-21T02:41:46;26.07;;;16.75;;
37065;SDS011;22981;43.080;25.550;2023-11-21T02:44:14;24.50;;;17.12;;
37065;SDS011;22981;43.080;25.550;2023-11-21T02:46:42;22.85;;;16.67;;
37065;SDS011;22981;43.080;25.550;2023-11-21T02:49:09;27.62;;;18.87;;
37065;SDS011;22981;43.080;25.550;2023-11-21T02:51:37;25.45;;;18.12;;
37065;SDS011;22981;43.080;25.550;2023-11-21T02:54:05;24.75;;;16.60;;
37065;SDS011;22981;43.080;25.550;2023-11-21T02:56:34;25.02;;;16.35;;
37065;SDS011;22981;43.080;25.550;2023-11-21T02:59:01;26.77;;;18.10;;
37065;SDS011;22981;43.080;25.550;2023-11-21T03:01:29;32.63;;;21.20;;
37065;SDS011;22981;43.080;25.550;2023-11-21T03:03:56;29.45;;;20.80;;
37065;SDS011;22981;43.080;25.550;2023-11-21T03:06:24;26.50;;;19.50;;
37065;SDS011;22981;43.080;25.550;2023-11-21T03:08:52;27.05;;;18.25;;
37065;SDS011;22981;43.080;25.550;2023-11-21T03:11:19;30.55;;;21.15;;
37065;SDS011;22981;43.080;25.550;2023-11-21T03:13:47;27.80;;;18.05;;
37065;SDS011;22981;43.080;25.550;2023-11-21T03:16:15;25.48;;;16.75;;
37065;SDS011;22981;43.080;25.550;2023-11-21T03:18:44;27.82;;;16.85;;
37065;SDS011;22981;43.080;25.550;2023-11-21T03:21:12;30.85;;;20.40;;
37065;SDS011;22981;43.080;25.550;2023-11-21T03:23:40;30.43;;;19.37;;
37065;SDS011;22981;43.080;25.550;2023-11-21T03:26:11;28.50;;;19.75;;
37065;SDS011;22981;43.080;25.550;2023-11-21T03:28:38;27.77;;;19.40;;
37065;SDS011;22981;43.080;25.550;2023-11-21T03:31:06;62.25;;;39.50;;
37065;SDS011;22981;43.080;25.550;2023-11-21T03:33:35;45.88;;;29.37;;
37065;SDS011;22981;43.080;25.550;2023-11-21T03:36:02;37.65;;;25.20;;
37065;SDS011;22981;43.080;25.550;2023-11-21T03:38:30;70.87;;;41.53;;
37065;SDS011;22981;43.080;25.550;2023-11-21T03:40:58;40.83;;;26.82;;
37065;SDS011;22981;43.080;25.550;2023-11-21T03:43:25;52.53;;;33.10;;
37065;SDS011;22981;43.080;25.550;2023-11-21T03:45:53;30.62;;;19.07;;
37065;SDS011;22981;43.080;25.550;2023-11-21T03:48:20;29.82;;;19.50;;
37065;SDS011;22981;43.080;25.550;2023-11-21T03:50:48;29.95;;;18.20;;
37065;SDS011;22981;43.080;25.550;2023-11-21T03:53:16;33.53;;;20.43;;
37065;SDS011;22981;43.080;25.550;2023-11-21T03:55:44;42.88;;;25.00;;
37065;SDS011;22981;43.080;25.550;2023-11-21T03:58:11;48.40;;;28.55;;
37065;SDS011;22981;43.080;25.550;2023-11-21T04:00:39;43.68;;;26.15;;
37065;SDS011;22981;43.080;25.550;2023-11-21T04:03:07;40.35;;;24.45;;
37065;SDS011;22981;43.080;25.550;2023-11-21T04:05:34;36.73;;;23.02;;
37065;SDS011;22981;43.080;25.550;2023-11-21T04:08:02;29.07;;;20.77;;
37065;SDS011;22981;43.080;25.550;2023-11-21T04:10:30;34.38;;;21.87;;
37065;SDS011;22981;43.080;25.550;2023-11-21T04:12:57;35.33;;;21.93;;
37065;SDS011;22981;43.080;25.550;2023-11-21T04:15:25;39.73;;;21.82;;
37065;SDS011;22981;43.080;25.550;2023-11-21T04:17:53;40.50;;;24.98;;
37065;SDS011;22981;43.080;25.550;2023-11-21T04:20:22;35.98;;;24.57;;
37065;SDS011;22981;43.080;25.550;2023-11-21T04:22:49;42.30;;;26.33;;
37065;SDS011;22981;43.080;25.550;2023-11-21T04:25:17;41.00;;;26.37;;
37065;SDS011;22981;43.080;25.550;2023-11-21T04:27:45;50.05;;;30.12;;
37065;SDS011;22981;43.080;25.550;2023-11-21T04:30:13;45.10;;;27.37;;
37065;SDS011;22981;43.080;25.550;2023-11-21T04:32:41;39.18;;;24.85;;
37065;SDS011;22981;43.080;25.550;2023-11-21T04:35:08;37.78;;;22.32;;
37065;SDS011;22981;43.080;25.550;2023-11-21T04:37:36;36.85;;;22.55;;
37065;SDS011;22981;43.080;25.550;2023-11-21T04:40:04;33.55;;;22.87;;
37065;SDS011;22981;43.080;25.550;2023-11-21T04:42:33;35.70;;;22.70;;
37065;SDS011;22981;43.080;25.550;2023-11-21T04:45:02;37.55;;;23.12;;
37065;SDS011;22981;43.080;25.550;2023-11-21T04:47:32;41.05;;;24.67;;
37065;SDS011;22981;43.080;25.550;2023-11-21T04:50:00;40.60;;;26.70;;
37065;SDS011;22981;43.080;25.550;2023-11-21T04:52:29;48.55;;;29.92;;
37065;SDS011;22981;43.080;25.550;2023-11-21T04:54:56;47.70;;;28.23;;
37065;SDS011;22981;43.080;25.550;2023-11-21T04:57:24;42.35;;;24.67;;
37065;SDS011;22981;43.080;25.550;2023-11-21T04:59:53;38.80;;;25.90;;
37065;SDS011;22981;43.080;25.550;2023-11-21T05:02:21;38.40;;;27.35;;
37065;SDS011;22981;43.080;25.550;2023-11-21T05:04:48;38.45;;;25.75;;
37065;SDS011;22981;43.080;25.550;2023-11-21T05:07:16;35.75;;;25.55;;
37065;SDS011;22981;43.080;25.550;2023-11-21T05:09:44;33.20;;;23.42;;
37065;SDS011;22981;43.080;25.550;2023-11-21T05:12:12;30.88;;;20.97;;
37065;SDS011;22981;43.080;25.550;2023-11-21T05:14:40;32.55;;;20.85;;
37065;SDS011;22981;43.080;25.550;2023-11-21T05:17:08;38.02;;;24.27;;
37065;SDS011;22981;43.080;25.550;2023-11-21T05:19:36;33.53;;;22.95;;
37065;SDS011;22981;43.080;25.550;2023-11-21T05:22:05;32.13;;;22.00;;
37065;SDS011;22981;43.080;25.550;2023-11-21T05:24:34;32.80;;;20.88;;
37065;SDS011;22981;43.080;25.550;2023-11-21T05:27:01;31.17;;;21.48;;
37065;SDS011;22981;43.080;25.550;2023-11-21T05:29:29;29.18;;;20.23;;
37065;SDS011;22981;43.080;25.550;2023-11-21T05:31:57;32.23;;;21.52;;
37065;SDS011;22981;43.080;25.550;2023-11-21T05:34:24;27.02;;;21.05;;
37065;SDS011;22981;43.080;25.550;2023-11-21T05:36:52;29.30;;;21.17;;
37065;SDS011;22981;43.080;25.550;2023-11-21T05:39:19;28.52;;;21.70;;
37065;SDS011;22981;43.080;25.550;2023-11-21T05:41:50;37.40;;;21.57;;
37065;SDS011;22981;43.080;25.550;2023-11-21T05:44:17;33.45;;;22.77;;
37065;SDS011;22981;43.080;25.550;2023-11-21T05:46:45;28.50;;;21.07;;
37065;SDS011;22981;43.080;25.550;2023-11-21T05:49:13;28.80;;;20.68;;
37065;SDS011;22981;43.080;25.550;2023-11-21T05:51:41;28.83;;;22.02;;
37065;SDS011;22981;43.080;25.550;2023-11-21T05:54:09;33.02;;;24.70;;
37065;SDS011;22981;43.080;25.550;2023-11-21T05:56:36;31.42;;;24.00;;
37065;SDS011;22981;43.080;25.550;2023-11-21T05:59:04;34.45;;;26.27;;
37065;SDS011;22981;43.080;25.550;2023-11-21T06:01:32;62.45;;;43.28;;
37065;SDS011;22981;43.080;25.550;2023-11-21T06:04:00;35.43;;;23.83;;
37065;SDS011;22981;43.080;25.550;2023-11-21T06:06:27;33.30;;;24.02;;
37065;SDS011;22981;43.080;25.550;2023-11-21T06:08:56;33.78;;;24.72;;
37065;SDS011;22981;43.080;25.550;2023-11-21T06:11:23;39.40;;;26.70;;
37065;SDS011;22981;43.080;25.550;2023-11-21T06:13:51;39.38;;;27.05;;
37065;SDS011;22981;43.080;25.550;2023-11-21T06:16:19;36.20;;;25.75;;
37065;SDS011;22981;43.080;25.550;2023-11-21T06:18:46;39.25;;;27.07;;
37065;SDS011;22981;43.080;25.550;2023-11-21T06:21:14;38.13;;;26.73;;
37065;SDS011;22981;43.080;25.550;2023-11-21T06:23:43;44.75;;;30.70;;
37065;SDS011;22981;43.080;25.550;2023-11-21T06:26:11;77.97;;;60.33;;
37065;SDS011;22981;43.080;25.550;2023-11-21T06:28:38;58.90;;;44.35;;
37065;SDS011;22981;43.080;25.550;2023-11-21T06:31:06;48.98;;;37.88;;
37065;SDS011;22981;43.080;25.550;2023-11-21T06:33:34;42.10;;;31.97;;
37065;SDS011;22981;43.080;25.550;2023-11-21T06:36:02;49.55;;;36.10;;
37065;SDS011;22981;43.080;25.550;2023-11-21T06:38:29;47.83;;;33.35;;
37065;SDS011;22981;43.080;25.550;2023-11-21T06:40:57;47.62;;;30.65;;
37065;SDS011;22981;43.080;25.550;2023-11-21T06:43:27;53.60;;;39.67;;
37065;SDS011;22981;43.080;25.550;2023-11-21T06:45:55;36.30;;;27.52;;
37065;SDS011;22981;43.080;25.550;2023-11-21T06:48:23;30.40;;;20.57;;
37065;SDS011;22981;43.080;25.550;2023-11-21T06:50:50;29.98;;;20.57;;
37065;SDS011;22981;43.080;25.550;2023-11-21T06:53:18;31.77;;;21.30;;
37065;SDS011;22981;43.080;25.550;2023-11-21T06:55:45;33.10;;;22.82;;
37065;SDS011;22981;43.080;25.550;2023-11-21T06:58:13;29.90;;;23.77;;
37065;SDS011;22981;43.080;25.550;2023-11-21T07:00:41;30.08;;;22.13;;
37065;SDS011;22981;43.080;25.550;2023-11-21T07:03:10;36.55;;;23.92;;
37065;SDS011;22981;43.080;25.550;2023-11-21T07:05:38;28.98;;;22.80;;
37065;SDS011;22981;43.080;25.550;2023-11-21T07:08:05;29.32;;;24.45;;
37065;SDS011;22981;43.080;25.550;2023-11-21T07:10:33;36.98;;;27.90;;
37065;SDS011;22981;43.080;25.550;2023-11-21T07:13:02;45.60;;;34.70;;
37065;SDS011;22981;43.080;25.550;2023-11-21T07:15:29;47.85;;;35.73;;
37065;SDS011;22981;43.080;25.550;2023-11-21T07:17:57;70.05;;;49.88;;
37065;SDS011;22981;43.080;25.550;2023-11-21T07:20:25;58.38;;;42.25;;
37065;SDS011;22981;43.080;25.550;2023-11-21T07:22:53;48.87;;;36.33;;
37065;SDS011;22981;43.080;25.550;2023-11-21T07:25:21;56.00;;;38.63;;
37065;SDS011;22981;43.080;25.550;2023-11-21T07:27:49;45.67;;;37.03;;
37065;SDS011;22981;43.080;25.550;2023-11-21T07:30:16;39.95;;;29.50;;
37065;SDS011;22981;43.080;25.550;2023-11-21T07:32:44;34.98;;;23.15;;
37065;SDS011;22981;43.080;25.550;2023-11-21T07:35:13;25.00;;;19.82;;
37065;SDS011;22981;43.080;25.550;2023-11-21T07:37:41;29.80;;;19.02;;
37065;SDS011;22981;43.080;25.550;2023-11-21T07:40:09;24.45;;;17.02;;
37065;SDS011;22981;43.080;25.550;2023-11-21T07:42:37;23.85;;;17.75;;
37065;SDS011;22981;43.080;25.550;2023-11-21T07:45:05;26.05;;;17.77;;
37065;SDS011;22981;43.080;25.550;2023-11-21T07:47:33;25.05;;;19.57;;
37065;SDS011;22981;43.080;25.550;2023-11-21T07:50:06;23.47;;;19.48;;
37065;SDS011;22981;43.080;25.550;2023-11-21T07:52:30;21.80;;;16.37;;
37065;SDS011;22981;43.080;25.550;2023-11-21T07:54:58;22.35;;;16.70;;
37065;SDS011;22981;43.080;25.550;2023-11-21T07:57:25;27.37;;;20.27;;
37065;SDS011;22981;43.080;25.550;2023-11-21T07:59:53;27.70;;;19.20;;
37065;SDS011;22981;43.080;25.550;2023-11-21T08:02:21;24.20;;;16.75;;
37065;SDS011;22981;43.080;25.550;2023-11-21T08:04:49;21.97;;;17.42;;
37065;SDS011;22981;43.080;25.550;2023-11-21T08:07:17;23.62;;;14.25;;
37065;SDS011;22981;43.080;25.550;2023-11-21T08:09:44;15.75;;;12.30;;
37065;SDS011;22981;43.080;25.550;2023-11-21T08:12:14;19.57;;;15.25;;
37065;SDS011;22981;43.080;25.550;2023-11-21T08:14:41;17.80;;;14.40;;
37065;SDS011;22981;43.080;25.550;2023-11-21T08:17:10;24.00;;;16.48;;
37065;SDS011;22981;43.080;25.550;2023-11-21T08:19:37;21.33;;;16.12;;
37065;SDS011;22981;43.080;25.550;2023-11-21T08:22:05;18.77;;;13.55;;
37065;SDS011;22981;43.080;25.550;2023-11-21T08:24:33;24.75;;;17.87;;
37065;SDS011;22981;43.080;25.550;2023-11-21T08:27:01;20.88;;;14.30;;
37065;SDS011;22981;43.080;25.550;2023-11-21T08:29:29;22.73;;;15.40;;
37065;SDS011;22981;43.080;25.550;2023-11-21T08:31:57;17.32;;;14.78;;
37065;SDS011;22981;43.080;25.550;2023-11-21T08:34:25;17.17;;;14.45;;
37065;SDS011;22981;43.080;25.550;2023-11-21T08:36:54;25.25;;;19.87;;
37065;SDS011;22981;43.080;25.550;2023-11-21T08:39:22;20.65;;;15.68;;
37065;SDS011;22981;43.080;25.550;2023-11-21T08:41:50;21.05;;;16.97;;
37065;SDS011;22981;43.080;25.550;2023-11-21T08:44:18;26.82;;;21.07;;
37065;SDS011;22981;43.080;25.550;2023-11-21T08:46:45;28.60;;;22.77;;
37065;SDS011;22981;43.080;25.550;2023-11-21T08:49:13;22.90;;;18.75;;
37065;SDS011;22981;43.080;25.550;2023-11-21T08:51:41;21.07;;;18.35;;
37065;SDS011;22981;43.080;25.550;2023-11-21T08:54:08;24.35;;;17.70;;
37065;SDS011;22981;43.080;25.550;2023-11-21T08:56:37;25.90;;;20.45;;
37065;SDS011;22981;43.080;25.550;2023-11-21T08:59:05;25.35;;;19.80;;
37065;SDS011;22981;43.080;25.550;2023-11-21T09:01:33;23.38;;;19.70;;
37065;SDS011;22981;43.080;25.550;2023-11-21T09:04:01;26.40;;;19.95;;
37065;SDS011;22981;43.080;25.550;2023-11-21T09:06:28;25.70;;;19.45;;
37065;SDS011;22981;43.080;25.550;2023-11-21T09:08:56;23.73;;;18.77;;
37065;SDS011;22981;43.080;25.550;2023-11-21T09:11:23;25.60;;;19.00;;
37065;SDS011;22981;43.080;25.550;2023-11-21T09:13:53;24.25;;;17.60;;
37065;SDS011;22981;43.080;25.550;2023-11-21T09:16:20;25.65;;;17.77;;
37065;SDS011;22981;43.080;25.550;2023-11-21T09:18:48;20.08;;;16.97;;
37065;SDS011;22981;43.080;25.550;2023-11-21T09:21:15;22.85;;;17.48;;
37065;SDS011;22981;43.080;25.550;2023-11-21T09:23:46;24.15;;;17.98;;
37065;SDS011;22981;43.080;25.550;2023-11-21T09:26:14;21.93;;;16.57;;
37065;SDS011;22981;43.080;25.550;2023-11-21T09:28:45;21.48;;;15.85;;
37065;SDS011;22981;43.080;25.550;2023-11-21T09:31:13;22.30;;;16.02;;
37065;SDS011;22981;43.080;25.550;2023-11-21T09:33:46;21.87;;;16.80;;
37065;SDS011;22981;43.080;25.550;2023-11-21T09:36:11;24.12;;;16.07;;
37065;SDS011;22981;43.080;25.550;2023-11-21T09:38:42;21.25;;;14.20;;
37065;SDS011;22981;43.080;25.550;2023-11-21T09:41:13;19.32;;;14.50;;
37065;SDS011;22981;43.080;25.550;2023-11-21T09:43:42;18.00;;;13.75;;
37065;SDS011;22981;43.080;25.550;2023-11-21T09:46:12;19.48;;;12.47;;
37065;SDS011;22981;43.080;25.550;2023-11-21T09:48:42;17.45;;;12.13;;
37065;SDS011;22981;43.080;25.550;2023-11-21T09:51:11;17.00;;;11.30;;
37065;SDS011;22981;43.080;25.550;2023-11-21T09:53:39;13.95;;;8.43;;
37065;SDS011;22981;43.080;25.550;2023-11-21T09:56:09;11.00;;;8.05;;
37065;SDS011;22981;43.080;25.550;2023-11-21T09:58:37;9.80;;;5.97;;
37065;SDS011;22981;43.080;25.550;2023-11-21T10:01:04;19.25;;;12.43;;
37065;SDS011;22981;43.080;25.550;2023-11-21T10:03:35;9.58;;;6.42;;
37065;SDS011;22981;43.080;25.550;2023-11-21T10:06:04;7.33;;;4.10;;
37065;SDS011;22981;43.080;25.550;2023-11-21T10:08:33;4.40;;;3.25;;
37065;SDS011;22981;43.080;25.550;2023-11-21T10:11:02;3.25;;;2.47;;
37065;SDS011;22981;43.080;25.550;2023-11-21T10:13:32;3.87;;;2.40;;
37065;SDS011;22981;43.080;25.550;2023-11-21T10:16:00;6.37;;;4.37;;
37065;SDS011;22981;43.080;25.550;2023-11-21T10:18:30;6.37;;;3.90;;
37065;SDS011;22981;43.080;25.550;2023-11-21T10:20:59;5.87;;;2.70;;
37065;SDS011;22981;43.080;25.550;2023-11-21T10:23:29;5.83;;;2.35;;
37065;SDS011;22981;43.080;25.550;2023-11-21T10:25:57;5.00;;;2.10;;
37065;SDS011;22981;43.080;25.550;2023-11-21T10:28:25;4.15;;;2.22;;
37065;SDS011;22981;43.080;25.550;2023-11-21T10:30:53;3.95;;;2.33;;
37065;SDS011;22981;43.080;25.550;2023-11-21T10:33:26;4.70;;;3.37;;
37065;SDS011;22981;43.080;25.550;2023-11-21T10:35:55;4.95;;;3.10;;
37065;SDS011;22981;43.080;25.550;2023-11-21T10:38:23;4.15;;;2.27;;
37065;SDS011;22981;43.080;25.550;2023-11-21T10:40:52;5.00;;;2.42;;
37065;SDS011;22981;43.080;25.550;2023-11-21T10:43:24;1.72;;;1.32;;
37065;SDS011;22981;43.080;25.550;2023-11-21T10:45:52;2.47;;;1.50;;
37065;SDS011;22981;43.080;25.550;2023-11-21T10:48:24;3.58;;;1.40;;
37065;SDS011;22981;43.080;25.550;2023-11-21T10:50:52;3.02;;;1.80;;
37065;SDS011;22981;43.080;25.550;2023-11-21T10:53:22;5.75;;;1.70;;
37065;SDS011;22981;43.080;25.550;2023-11-21T10:55:50;2.40;;;1.70;;
37065;SDS011;22981;43.080;25.550;2023-11-21T10:58:19;7.62;;;3.80;;
37065;SDS011;22981;43.080;25.550;2023-11-21T11:00:47;2.70;;;1.85;;
37065;SDS011;22981;43.080;25.550;2023-11-21T11:03:16;3.55;;;1.42;;
37065;SDS011;22981;43.080;25.550;2023-11-21T11:05:44;2.05;;;1.62;;
37065;SDS011;22981;43.080;25.550;2023-11-21T11:08:16;2.77;;;2.10;;
37065;SDS011;22981;43.080;25.550;2023-11-21T11:10:45;3.20;;;1.42;;
37065;SDS011;22981;43.080;25.550;2023-11-21T11:13:13;3.83;;;2.47;;
37065;SDS011;22981;43.080;25.550;2023-11-21T11:15:41;1.62;;;1.00;;
37065;SDS011;22981;43.080;25.550;2023-11-21T11:18:11;2.98;;;1.47;;
37065;SDS011;22981;43.080;25.550;2023-11-21T11:20:39;0.90;;;0.80;;
37065;SDS011;22981;43.080;25.550;2023-11-21T11:23:31;2.47;;;1.27;;
37065;SDS011;22981;43.080;25.550;2023-11-21T11:29:08;2.27;;;1.47;;
37065;SDS011;22981;43.080;25.550;2023-11-21T11:31:52;3.12;;;1.30;;
37065;SDS011;22981;43.080;25.550;2023-11-21T11:34:19;1.20;;;1.02;;
37065;SDS011;22981;43.080;25.550;2023-11-21T11:36:53;15.75;;;12.65;;
37065;SDS011;22981;43.080;25.550;2023-11-21T11:42:05;6.28;;;4.50;;
37065;SDS011;22981;43.080;25.550;2023-11-21T11:47:28;3.27;;;2.80;;
37065;SDS011;22981;43.080;25.550;2023-11-21T11:50:04;2.83;;;2.30;;
37065;SDS011;22981;43.080;25.550;2023-11-21T11:52:34;1.82;;;1.22;;
37065;SDS011;22981;43.080;25.550;2023-11-21T11:55:06;14.85;;;9.70;;
37065;SDS011;22981;43.080;25.550;2023-11-21T11:57:41;2.67;;;2.20;;
37065;SDS011;22981;43.080;25.550;2023-11-21T12:02:44;7.20;;;3.90;;
37065;SDS011;22981;43.080;25.550;2023-11-21T12:05:13;2.65;;;1.87;;
37065;SDS011;22981;43.080;25.550;2023-11-21T12:07:51;3.92;;;2.27;;
37065;SDS011;22981;43.080;25.550;2023-11-21T12:10:20;6.17;;;2.17;;
37065;SDS011;22981;43.080;25.550;2023-11-21T12:12:56;262.25;;;137.57;;
37065;SDS011;22981;43.080;25.550;2023-11-21T12:15:20;62.17;;;31.50;;
37065;SDS011;22981;43.080;25.550;2023-11-21T12:17:50;8.53;;;5.20;;
37065;SDS011;22981;43.080;25.550;2023-11-21T12:20:18;10.30;;;5.15;;
37065;SDS011;22981;43.080;25.550;2023-11-21T12:22:48;2.85;;;2.35;;
37065;SDS011;22981;43.080;25.550;2023-11-21T12:25:17;4.12;;;2.35;;
37065;SDS011;22981;43.080;25.550;2023-11-21T12:27:47;1.92;;;1.30;;
37065;SDS011;22981;43.080;25.550;2023-11-21T12:30:17;1.70;;;1.20;;
37065;SDS011;22981;43.080;25.550;2023-11-21T12:32:48;1.55;;;1.20;;
37065;SDS011;22981;43.080;25.550;2023-11-21T12:35:20;1.98;;;1.55;;
37065;SDS011;22981;43.080;25.550;2023-11-21T12:37:52;1.12;;;1.00;;
37065;SDS011;22981;43.080;25.550;2023-11-21T12:40:23;3.02;;;2.10;;
37065;SDS011;22981;43.080;25.550;2023-11-21T12:42:51;2.77;;;1.85;;
37065;SDS011;22981;43.080;25.550;2023-11-21T12:45:24;2.37;;;1.77;;
37065;SDS011;22981;43.080;25.550;2023-11-21T12:50:26;4.12;;;2.20;;
37065;SDS011;22981;43.080;25.550;2023-11-21T12:52:59;3.15;;;2.10;;
37065;SDS011;22981;43.080;25.550;2023-11-21T12:58:00;2.20;;;1.90;;
37065;SDS011;22981;43.080;25.550;2023-11-21T13:00:39;3.22;;;1.80;;
37065;SDS011;22981;43.080;25.550;2023-11-21T13:03:12;2.00;;;1.60;;
37065;SDS011;22981;43.080;25.550;2023-11-21T13:05:43;1.70;;;1.30;;
37065;SDS011;22981;43.080;25.550;2023-11-21T13:08:14;4.60;;;2.20;;
37065;SDS011;22981;43.080;25.550;2023-11-21T13:10:44;3.08;;;2.12;;
37065;SDS011;22981;43.080;25.550;2023-11-21T13:13:15;4.33;;;1.60;;
37065;SDS011;22981;43.080;25.550;2023-11-21T13:15:53;3.08;;;1.20;;
37065;SDS011;22981;43.080;25.550;2023-11-21T13:18:26;1.87;;;1.60;;
37065;SDS011;22981;43.080;25.550;2023-11-21T13:20:54;4.22;;;1.80;;
37065;SDS011;22981;43.080;25.550;2023-11-21T13:23:23;4.78;;;3.17;;
37065;SDS011;22981;43.080;25.550;2023-11-21T13:25:51;3.58;;;2.98;;
37065;SDS011;22981;43.080;25.550;2023-11-21T13:28:20;3.08;;;1.60;;
37065;SDS011;22981;43.080;25.550;2023-11-21T13:30:50;3.08;;;1.90;;
37065;SDS011;22981;43.080;25.550;2023-11-21T13:33:21;6.58;;;4.65;;
37065;SDS011;22981;43.080;25.550;2023-11-21T13:35:50;4.17;;;2.10;;
37065;SDS011;22981;43.080;25.550;2023-11-21T13:38:18;4.42;;;2.83;;
37065;SDS011;22981;43.080;25.550;2023-11-21T13:40:48;4.92;;;4.20;;
37065;SDS011;22981;43.080;25.550;2023-11-21T13:43:22;2.87;;;2.50;;
37065;SDS011;22981;43.080;25.550;2023-11-21T13:45:51;2.27;;;1.70;;
37065;SDS011;22981;43.080;25.550;2023-11-21T13:48:36;3.30;;;2.90;;
37065;SDS011;22981;43.080;25.550;2023-11-21T13:51:05;3.90;;;2.75;;
37065;SDS011;22981;43.080;25.550;2023-11-21T13:53:38;3.83;;;2.77;;
37065;SDS011;22981;43.080;25.550;2023-11-21T13:56:07;6.83;;;3.77;;
37065;SDS011;22981;43.080;25.550;2023-11-21T13:58:35;4.20;;;2.35;;
37065;SDS011;22981;43.080;25.550;2023-11-21T14:01:26;4.45;;;2.98;;
37065;SDS011;22981;43.080;25.550;2023-11-21T14:04:01;5.20;;;3.27;;
37065;SDS011;22981;43.080;25.550;2023-11-21T14:06:47;3.58;;;2.58;;
37065;SDS011;22981;43.080;25.550;2023-11-21T14:09:19;3.65;;;2.70;;
37065;SDS011;22981;43.080;25.550;2023-11-21T14:11:52;2.22;;;1.80;;
37065;SDS011;22981;43.080;25.550;2023-11-21T14:14:25;2.85;;;2.17;;
37065;SDS011;22981;43.080;25.550;2023-11-21T14:16:56;5.35;;;4.08;;
37065;SDS011;22981;43.080;25.550;2023-11-21T14:19:24;3.90;;;1.82;;
37065;SDS011;22981;43.080;25.550;2023-11-21T14:21:57;3.00;;;1.82;;
37065;SDS011;22981;43.080;25.550;2023-11-21T14:24:24;52.13;;;34.73;;
37065;SDS011;22981;43.080;25.550;2023-11-21T14:26:52;57.50;;;39.13;;
37065;SDS011;22981;43.080;25.550;2023-11-21T14:29:20;20.65;;;17.67;;
37065;SDS011;22981;43.080;25.550;2023-11-21T14:31:49;10.05;;;9.05;;
37065;SDS011;22981;43.080;25.550;2023-11-21T14:34:16;6.00;;;4.80;;
37065;SDS011;22981;43.080;25.550;2023-11-21T14:36:44;3.77;;;2.75;;
37065;SDS011;22981;43.080;25.550;2023-11-21T14:39:12;4.42;;;3.77;;
37065;SDS011;22981;43.080;25.550;2023-11-21T14:41:41;5.35;;;3.05;;